createdAt,value
2023-05-09T00:01:22.582Z,101385.56
2023-05-09T00:04:59.993Z,101393.16
2023-05-09T00:08:21.196Z,101387.19
2023-05-09T00:11:40.428Z,101389.06
2023-05-09T00:14:52.337Z,101378.81
2023-05-09T00:18:00.846Z,101388.59
2023-05-09T00:21:22.413Z,101379.13
2023-05-09T00:24:34.082Z,101377.19
2023-05-09T00:27:39.885Z,101373.13
2023-05-09T00:30:51.701Z,101373.66
2023-05-09T00:33:56.626Z,101369.28
2023-05-09T00:37:15.413Z,101364.97
2023-05-09T00:40:57.977Z,101362.03
2023-05-09T00:44:15.990Z,101373.69
2023-05-09T00:47:36.176Z,101372.88
2023-05-09T00:51:06.181Z,101370.41
2023-05-09T00:54:33.202Z,101363.94
2023-05-09T00:57:54.718Z,101363.94
2023-05-09T01:01:12.094Z,101372.34
2023-05-09T01:04:35.042Z,101360.13
2023-05-09T01:08:19.675Z,101374.53
2023-05-09T01:11:43.518Z,101369.38
2023-05-09T01:15:13.138Z,101366.69
2023-05-09T01:18:47.282Z,101368.28
2023-05-09T01:22:09.097Z,101370.47
2023-05-09T01:26:14.028Z,101363.41
2023-05-09T01:29:54.876Z,101369.66
2023-05-09T01:33:14.586Z,101369.94
2023-05-09T01:36:59.524Z,101365.84
2023-05-09T01:40:48.136Z,101359.34
2023-05-09T01:44:37.751Z,101365.31
2023-05-09T01:48:10.067Z,101353.94
2023-05-09T01:51:52.935Z,101361.25
2023-05-09T01:55:38.595Z,101357.19
2023-05-09T01:59:29.950Z,101357.72
2023-05-09T02:02:59.191Z,101359.34
2023-05-09T02:06:22.013Z,101356.63
2023-05-09T02:09:59.218Z,101345.78
2023-05-09T02:13:30.915Z,101347.41
2023-05-09T02:16:55.198Z,101347.38
2023-05-09T02:20:22.368Z,101346.31
2023-05-09T02:23:43.763Z,101341.19
2023-05-09T02:27:05.982Z,101340.06
2023-05-09T02:30:33.698Z,101344.66
2023-05-09T02:34:00.219Z,101344.13
2023-05-09T02:37:37.661Z,101334.38
2023-05-09T02:41:09.441Z,101345.47
2023-05-09T02:44:43.666Z,101336.53
2023-05-09T02:48:20.492Z,101337.88
2023-05-09T02:52:17.677Z,101338.88
2023-05-09T02:55:37.053Z,101340.78
2023-05-09T02:58:51.626Z,101334.00
2023-05-09T03:02:08.508Z,101330.50
2023-05-09T03:05:27.933Z,101338.34
2023-05-09T03:08:47.684Z,101337.53
2023-05-09T03:12:09.805Z,101322.56
2023-05-09T03:15:29.932Z,101334.00
2023-05-09T03:18:56.894Z,101325.47
2023-05-09T03:22:09.778Z,101331.03
2023-05-09T03:25:36.847Z,101330.47
2023-05-09T03:28:54.180Z,101326.44
2023-05-09T03:32:20.790Z,101329.69
2023-05-09T03:35:39.234Z,101334.03
2023-05-09T03:39:04.916Z,101327.78
2023-05-09T03:43:03.251Z,101344.94
2023-05-09T03:46:55.530Z,101345.16
2023-05-09T03:50:17.344Z,101351.63
2023-05-09T03:53:24.127Z,101353.34
2023-05-09T03:56:43.372Z,101354.69
2023-05-09T04:04:24.702Z,101346.88
2023-05-09T04:07:32.734Z,101349.81
2023-05-09T04:10:50.569Z,101346.31
2023-05-09T04:14:08.841Z,101345.44
2023-05-09T04:17:16.248Z,101341.16
2023-05-09T04:20:22.376Z,101345.50
2023-05-09T04:23:45.005Z,101345.78
2023-05-09T04:26:53.743Z,101353.09
2023-05-09T04:30:06.996Z,101345.22
2023-05-09T04:33:13.608Z,101348.75
2023-05-09T04:36:37.247Z,101346.59
2023-05-09T04:39:57.646Z,101343.63
2023-05-09T04:43:36.221Z,101355.28
2023-05-09T04:46:45.625Z,101350.41
2023-05-09T04:50:18.205Z,101355.56
2023-05-09T04:53:51.213Z,101343.88
2023-05-09T04:57:33.653Z,101346.06
2023-05-09T05:00:57.336Z,101358.25
2023-05-09T05:04:15.909Z,101355.03
2023-05-09T05:07:38.320Z,101348.22
2023-05-09T05:11:03.235Z,101355.28
2023-05-09T05:14:23.433Z,101348.75
2023-05-09T05:17:46.275Z,101357.19
2023-05-09T05:21:06.799Z,101360.41
2023-05-09T05:24:26.414Z,101350.91
2023-05-09T05:27:39.755Z,101353.34
2023-05-09T05:31:02.343Z,101360.44
2023-05-09T05:34:26.449Z,101357.69
2023-05-09T05:37:52.178Z,101344.41
2023-05-09T05:41:04.736Z,101360.03
2023-05-09T05:44:35.139Z,101346.47
2023-05-09T05:48:02.871Z,101342.88
2023-05-09T05:51:18.398Z,101351.38
2023-05-09T05:54:31.220Z,101350.25
2023-05-09T05:57:46.176Z,101355.91
2023-05-09T06:00:57.161Z,101356.59
2023-05-09T06:12:45.828Z,101361.66
2023-05-09T06:16:18.426Z,101362.97
2023-05-09T06:19:29.568Z,101363.03
2023-05-09T06:22:38.998Z,101356.47
2023-05-09T06:25:52.097Z,101356.13
2023-05-09T06:29:14.813Z,101344.53
2023-05-09T06:32:29.083Z,101347.41
2023-05-09T06:35:53.006Z,101334.88
2023-05-09T06:39:19.049Z,101333.97
2023-05-09T06:42:40.145Z,101339.41
2023-05-09T06:46:03.123Z,101332.28
2023-05-09T06:49:25.264Z,101328.06
2023-05-09T06:52:45.561Z,101339.78
2023-05-09T06:56:01.817Z,101328.59
2023-05-09T06:59:05.454Z,101321.97
2023-05-09T07:02:09.760Z,101320.50
2023-05-09T07:05:28.490Z,101317.69
2023-05-09T07:08:52.825Z,101313.44
2023-05-09T07:12:02.138Z,101317.34
2023-05-09T07:15:25.635Z,101311.84
2023-05-09T07:18:44.113Z,101319.41
2023-05-09T07:21:51.824Z,101310.19
2023-05-09T07:25:00.239Z,101295.97
2023-05-09T07:28:12.806Z,101293.00
2023-05-09T07:32:10.364Z,101290.56
2023-05-09T07:35:22.770Z,101287.25
2023-05-09T07:38:29.533Z,101282.72
2023-05-09T07:41:39.144Z,101284.66
2023-05-09T07:44:58.573Z,101284.03
2023-05-09T07:48:27.866Z,101275.38
2023-05-09T07:51:34.274Z,101267.34
2023-05-09T07:54:40.389Z,101272.41
2023-05-09T07:57:58.073Z,101273.22
2023-05-09T08:01:08.019Z,101268.38
2023-05-09T08:04:30.039Z,101261.19
2023-05-09T08:07:49.521Z,101252.47
2023-05-09T08:11:12.455Z,101243.06
2023-05-09T08:14:46.198Z,101243.84
2023-05-09T08:17:54.434Z,101244.50
2023-05-09T08:21:21.466Z,101247.97
2023-05-09T08:24:40.200Z,101245.63
2023-05-09T08:27:57.075Z,101244.75
2023-05-09T08:31:16.794Z,101240.91
2023-05-09T08:34:28.865Z,101239.72
2023-05-09T08:37:48.931Z,101230.69
2023-05-09T08:41:17.029Z,101236.16
2023-05-09T08:44:44.759Z,101240.88
2023-05-09T08:48:09.797Z,101234.84
2023-05-09T08:51:40.855Z,101227.75
2023-05-09T08:54:54.694Z,101216.31
2023-05-09T08:58:23.848Z,101212.91
2023-05-09T09:01:38.647Z,101216.84
2023-05-09T09:04:59.728Z,101210.00
2023-05-09T09:08:25.617Z,101201.13
2023-05-09T09:11:45.635Z,101197.63
2023-05-09T09:15:07.703Z,101196.97
2023-05-09T09:18:35.970Z,101199.53
2023-05-09T09:21:46.102Z,101193.59
2023-05-09T09:25:03.830Z,101200.38
2023-05-09T09:28:38.256Z,101202.47
2023-05-09T09:32:05.067Z,101196.66
2023-05-09T09:35:19.731Z,101191.97
2023-05-09T09:38:48.344Z,101187.59
2023-05-09T09:42:16.521Z,101198.75
2023-05-09T09:45:30.447Z,101198.69
2023-05-09T09:48:46.093Z,101195.06
2023-05-09T09:51:54.891Z,101188.59
2023-05-09T09:55:13.840Z,101188.88
2023-05-09T09:58:35.808Z,101181.19
2023-05-09T10:02:09.534Z,101182.78
2023-05-09T10:05:27.645Z,101179.53
2023-05-09T10:08:45.053Z,101167.84
2023-05-09T10:12:07.355Z,101168.38
2023-05-09T10:15:17.575Z,101174.56
2023-05-09T10:18:45.285Z,101174.16
2023-05-09T10:22:17.449Z,101166.75
2023-05-09T10:25:28.798Z,101159.09
2023-05-09T10:28:40.095Z,101163.50
2023-05-09T10:32:10.559Z,101171.00
2023-05-09T10:35:54.514Z,101159.97
2023-05-09T10:39:09.224Z,101162.03
2023-05-09T10:42:37.553Z,101143.13
2023-05-09T10:45:46.020Z,101155.72
2023-05-09T10:49:03.645Z,101156.22
2023-05-09T10:52:15.672Z,101143.00
2023-05-09T10:55:37.385Z,101151.97
2023-05-09T11:00:23.847Z,101148.50
2023-05-09T11:03:30.270Z,101152.06
2023-05-09T11:06:52.336Z,101156.44
2023-05-09T11:10:28.549Z,101140.91
2023-05-09T11:13:51.894Z,101145.19
2023-05-09T11:17:08.009Z,101134.94
2023-05-09T11:20:29.900Z,101145.19
2023-05-09T11:23:33.994Z,101130.25
2023-05-09T11:27:02.284Z,101112.38
2023-05-09T11:35:26.219Z,101113.72
2023-05-09T11:39:17.257Z,101114.72
2023-05-09T11:42:30.119Z,101110.94
2023-05-09T11:45:39.473Z,101098.75
2023-05-09T11:48:55.157Z,101110.69
2023-05-09T11:52:20.971Z,101105.06
2023-05-09T11:55:40.414Z,101105.78
2023-05-09T11:58:48.127Z,101100.78
2023-05-09T12:02:08.945Z,101106.59
2023-05-09T12:05:38.776Z,101099.03
2023-05-09T12:09:21.470Z,101086.03
2023-05-09T12:12:31.684Z,101082.13
2023-05-09T12:15:54.653Z,101090.72
2023-05-09T12:19:15.775Z,101068.19
2023-05-09T12:22:37.567Z,101083.03
2023-05-09T12:25:56.303Z,101074.34
2023-05-09T12:29:21.463Z,101070.13
2023-05-09T12:32:34.716Z,101065.44
2023-05-09T12:35:47.569Z,101063.38
2023-05-09T12:39:09.761Z,101064.56
2023-05-09T12:42:27.833Z,101058.56
2023-05-09T12:45:46.070Z,101057.44
2023-05-09T12:48:54.513Z,101047.28
2023-05-09T12:52:12.083Z,101044.56
2023-05-09T12:55:29.265Z,101042.00
2023-05-09T12:58:54.655Z,101035.28
2023-05-09T13:02:18.075Z,101040.06
2023-05-09T13:05:41.118Z,101031.75
2023-05-09T13:09:12.072Z,101019.44
2023-05-09T13:12:16.360Z,101019.56
2023-05-09T13:15:43.520Z,101020.50
2023-05-09T13:18:48.806Z,101013.72
2023-05-09T13:21:55.697Z,101004.53
2023-05-09T13:25:19.245Z,101012.22
2023-05-09T13:28:38.300Z,101003.75
2023-05-09T13:32:00.631Z,101009.06
2023-05-09T13:35:10.936Z,101010.19
2023-05-09T13:38:29.756Z,101002.31
2023-05-09T13:41:56.758Z,100996.78
2023-05-09T13:45:22.039Z,100999.25
2023-05-09T13:49:03.894Z,100985.16
2023-05-09T13:52:49.096Z,100991.50
2023-05-09T13:56:06.175Z,100975.09
2023-05-09T13:59:49.550Z,100986.00
2023-05-09T14:03:17.019Z,100985.34
2023-05-09T14:06:29.455Z,100971.59
2023-05-09T14:09:40.441Z,100966.31
2023-05-09T14:13:15.909Z,100965.31
2023-05-09T14:21:17.247Z,100964.25
2023-05-09T14:24:42.815Z,100955.63
2023-05-09T14:28:06.814Z,100951.38
2023-05-09T14:31:44.408Z,100942.19
2023-05-09T14:35:08.801Z,100948.22
2023-05-09T14:38:29.180Z,100942.84
2023-05-09T14:42:38.108Z,100936.41
2023-05-09T14:46:24.965Z,100943.25
2023-05-09T14:49:28.313Z,100943.00
2023-05-09T14:52:44.792Z,100944.50
2023-05-09T14:56:15.887Z,100942.19
2023-05-09T14:59:37.207Z,100939.25
2023-05-09T15:02:57.995Z,100933.41
2023-05-09T15:06:19.754Z,100927.84
2023-05-09T15:09:27.913Z,100918.72
2023-05-09T15:12:33.883Z,100918.84
2023-05-09T15:15:42.770Z,100919.41
2023-05-09T15:19:01.509Z,100919.63
2023-05-09T15:22:23.653Z,100922.44
2023-05-09T15:25:40.553Z,100919.06
2023-05-09T15:29:03.688Z,100907.28
2023-05-09T15:32:27.805Z,100904.28
2023-05-09T15:35:33.619Z,100906.94
2023-05-09T15:38:49.925Z,100896.06
2023-05-09T15:41:55.013Z,100902.78
2023-05-09T15:45:04.373Z,100895.44
2023-05-09T15:48:25.841Z,100903.69
2023-05-09T15:51:32.862Z,100898.78
2023-05-09T15:54:36.640Z,100894.59
2023-05-09T15:57:40.517Z,100890.22
2023-05-09T16:01:03.473Z,100876.13
2023-05-09T16:04:14.257Z,100882.19
2023-05-09T16:07:35.375Z,100873.41
2023-05-09T16:11:01.571Z,100869.75
2023-05-09T16:14:25.097Z,100867.19
2023-05-09T16:17:54.513Z,100872.03
2023-05-09T16:21:25.561Z,100880.13
2023-05-09T16:24:48.274Z,100872.69
2023-05-09T16:27:59.122Z,100870.81
2023-05-09T16:31:23.301Z,100876.28
2023-05-09T16:34:48.458Z,100866.56
2023-05-09T16:38:13.500Z,100873.25
2023-05-09T16:41:45.086Z,100867.97
2023-05-09T16:44:58.546Z,100865.19
2023-05-09T16:48:23.180Z,100854.38
2023-05-09T16:51:40.827Z,100850.00
2023-05-09T16:55:05.667Z,100853.41
2023-05-09T16:58:37.175Z,100846.66
2023-05-09T17:02:00.662Z,100851.34
2023-05-09T17:05:21.508Z,100846.66
2023-05-09T17:08:42.460Z,100851.53
2023-05-09T17:11:52.845Z,100859.28
2023-05-09T17:15:11.577Z,100857.75
2023-05-09T17:18:38.610Z,100847.81
2023-05-09T17:22:04.811Z,100850.63
2023-05-09T17:25:33.572Z,100856.91
2023-05-09T17:28:50.429Z,100851.78
2023-05-09T17:32:13.429Z,100851.84
2023-05-09T17:35:40.010Z,100849.88
2023-05-09T17:39:01.381Z,100853.44
2023-05-09T17:42:07.182Z,100846.81
2023-05-09T17:45:30.491Z,100848.56
2023-05-09T17:49:14.694Z,100845.56
2023-05-09T17:52:39.598Z,100849.25
2023-05-09T17:55:58.570Z,100852.78
2023-05-09T17:59:09.013Z,100847.16
2023-05-09T18:02:34.374Z,100854.56
2023-05-09T18:06:03.237Z,100848.03
2023-05-09T18:09:19.793Z,100844.63
2023-05-09T18:12:36.840Z,100856.63
2023-05-09T18:16:03.463Z,100850.81
2023-05-09T18:19:16.819Z,100853.94
2023-05-09T18:22:27.423Z,100868.31
2023-05-09T18:25:35.020Z,100862.28
2023-05-09T18:28:45.156Z,100863.59
2023-05-09T18:32:02.222Z,100860.09
2023-05-09T18:35:23.260Z,100856.47
2023-05-09T18:38:40.097Z,100867.59
2023-05-09T18:42:09.728Z,100874.88
2023-05-09T18:45:26.328Z,100883.47
2023-05-09T18:48:36.535Z,100877.97
2023-05-09T18:52:00.353Z,100874.47
2023-05-09T18:55:37.224Z,100886.28
2023-05-09T18:59:17.545Z,100883.22
2023-05-09T19:02:36.940Z,100885.16
2023-05-09T19:05:58.561Z,100885.34
2023-05-09T19:09:25.394Z,100887.72
2023-05-09T19:12:43.066Z,100888.88
2023-05-09T19:16:07.301Z,100887.59
2023-05-09T19:19:20.324Z,100887.41
2023-05-09T19:22:29.323Z,100878.91
2023-05-09T19:25:52.540Z,100879.88
2023-05-09T19:29:16.336Z,100879.66
2023-05-09T19:32:39.593Z,100879.81
2023-05-09T19:35:45.373Z,100888.03
2023-05-09T19:39:11.126Z,100887.22
2023-05-09T19:42:41.373Z,100878.78
2023-05-09T19:45:58.119Z,100878.84
2023-05-09T19:49:36.315Z,100882.38
2023-05-09T19:53:05.505Z,100883.84
2023-05-09T19:56:27.105Z,100880.78
2023-05-09T20:00:06.943Z,100884.25
2023-05-09T20:03:45.145Z,100869.78
2023-05-09T20:07:22.126Z,100874.28
2023-05-09T20:10:56.289Z,100879.91
2023-05-09T20:14:16.185Z,100876.88
2023-05-09T20:17:38.992Z,100871.81
2023-05-09T20:20:48.515Z,100874.44
2023-05-09T20:24:13.037Z,100870.22
2023-05-09T20:27:47.314Z,100881.44
2023-05-09T20:31:23.191Z,100871.31
2023-05-09T20:34:41.133Z,100866.16
2023-05-09T20:38:00.912Z,100874.03
2023-05-09T20:41:20.180Z,100868.16
2023-05-09T20:44:38.569Z,100865.56
2023-05-09T20:48:02.057Z,100862.50
2023-05-09T20:51:28.422Z,100862.44
2023-05-09T20:54:45.250Z,100856.81
2023-05-09T20:58:04.085Z,100858.06
2023-05-09T21:01:28.927Z,100861.56
2023-05-09T21:04:46.063Z,100857.06
2023-05-09T21:08:11.838Z,100862.84
2023-05-09T21:11:38.723Z,100857.25
2023-05-09T21:15:04.100Z,100848.56
2023-05-09T21:18:21.983Z,100853.97
2023-05-09T21:21:49.509Z,100848.72
2023-05-09T21:25:11.218Z,100853.59
2023-05-09T21:28:33.647Z,100846.22
2023-05-09T21:31:57.909Z,100838.50
2023-05-09T21:35:04.563Z,100858.59
2023-05-09T21:38:08.423Z,100841.88
2023-05-09T21:41:22.461Z,100853.06
2023-05-09T21:44:34.431Z,100851.84
2023-05-09T21:47:51.092Z,100846.31
2023-05-09T21:51:04.469Z,100850.50
2023-05-09T21:54:24.304Z,100846.47
2023-05-09T21:57:28.224Z,100855.00
2023-05-09T22:00:35.874Z,100835.31
2023-05-09T22:04:04.129Z,100848.44
2023-05-09T22:07:20.442Z,100837.38
2023-05-09T22:10:37.857Z,100837.94
2023-05-09T22:14:00.361Z,100839.09
2023-05-09T22:17:16.741Z,100840.84
2023-05-09T22:20:44.764Z,100837.78
2023-05-09T22:24:10.987Z,100835.72
2023-05-09T22:27:27.932Z,100837.78
2023-05-09T22:30:50.733Z,100830.88
2023-05-09T22:34:28.594Z,100836.44
2023-05-09T22:37:40.051Z,100836.84
2023-05-09T22:40:59.386Z,100831.16
2023-05-09T22:44:15.435Z,100838.00
2023-05-09T22:47:36.803Z,100836.13
2023-05-09T22:50:51.330Z,100828.13
2023-05-09T22:54:09.504Z,100835.72
2023-05-09T22:57:25.356Z,100830.13
2023-05-09T23:00:34.077Z,100822.78
2023-05-09T23:03:45.146Z,100837.66
2023-05-09T23:10:58.815Z,100822.75
2023-05-09T23:14:02.938Z,100813.16
2023-05-09T23:17:08.432Z,100816.81
2023-05-09T23:20:14.665Z,100817.41
2023-05-09T23:23:35.252Z,100822.75
2023-05-09T23:27:19.217Z,100818.53
2023-05-09T23:30:28.892Z,100811.47
2023-05-09T23:33:53.477Z,100812.13
2023-05-09T23:37:30.008Z,100815.34
2023-05-09T23:40:55.812Z,100812.28
2023-05-09T23:44:25.704Z,100807.75
2023-05-09T23:47:58.379Z,100809.56
2023-05-09T23:51:25.767Z,100797.28
2023-05-09T23:54:47.834Z,100794.69
2023-05-09T23:58:09.637Z,100802.75
